sensor_id;sensor_type;location;lat;lon;timestamp;pressure;altitude;pressure_sealevel;temperature
37536;BMP180;23379;51.554;6.736;2023-09-12T00:01:44;100828.00;;;20.60
37536;BMP180;23379;51.554;6.736;2023-09-12T00:04:09;100838.00;;;20.70
37536;BMP180;23379;51.554;6.736;2023-09-12T00:06:36;100830.00;;;20.70
37536;BMP180;23379;51.554;6.736;2023-09-12T00:09:01;100821.00;;;20.70
37536;BMP180;23379;51.554;6.736;2023-09-12T00:11:30;100821.00;;;20.90
37536;BMP180;23379;51.554;6.736;2023-09-12T00:13:55;100837.00;;;20.90
37536;BMP180;23379;51.554;6.736;2023-09-12T00:16:21;100839.00;;;20.50
37536;BMP180;23379;51.554;6.736;2023-09-12T00:18:46;100845.00;;;20.30
37536;BMP180;23379;51.554;6.736;2023-09-12T00:21:11;100875.00;;;20.40
37536;BMP180;23379;51.554;6.736;2023-09-12T00:23:36;100857.00;;;20.60
37536;BMP180;23379;51.554;6.736;2023-09-12T00:26:02;100868.00;;;20.50
37536;BMP180;23379;51.554;6.736;2023-09-12T00:28:27;100910.00;;;19.90
37536;BMP180;23379;51.554;6.736;2023-09-12T00:30:52;100818.00;;;20.00
37536;BMP180;23379;51.554;6.736;2023-09-12T00:33:18;100791.00;;;19.70
37536;BMP180;23379;51.554;6.736;2023-09-12T00:35:43;100797.00;;;19.90
37536;BMP180;23379;51.554;6.736;2023-09-12T00:38:08;100778.00;;;20.00
37536;BMP180;23379;51.554;6.736;2023-09-12T00:40:34;100786.00;;;19.90
37536;BMP180;23379;51.554;6.736;2023-09-12T00:42:59;100791.00;;;20.10
37536;BMP180;23379;51.554;6.736;2023-09-12T00:45:24;100804.00;;;20.30
37536;BMP180;23379;51.554;6.736;2023-09-12T00:47:50;100820.00;;;20.30
37536;BMP180;23379;51.554;6.736;2023-09-12T00:50:16;100819.00;;;20.40
37536;BMP180;23379;51.554;6.736;2023-09-12T00:52:41;100797.00;;;20.20
37536;BMP180;23379;51.554;6.736;2023-09-12T00:55:07;100797.00;;;20.00
37536;BMP180;23379;51.554;6.736;2023-09-12T00:57:33;100803.00;;;20.00
37536;BMP180;23379;51.554;6.736;2023-09-12T00:59:59;100797.00;;;19.90
37536;BMP180;23379;51.554;6.736;2023-09-12T01:02:26;100797.00;;;19.90
37536;BMP180;23379;51.554;6.736;2023-09-12T01:04:52;100801.00;;;20.00
37536;BMP180;23379;51.554;6.736;2023-09-12T01:07:17;100806.00;;;20.10
37536;BMP180;23379;51.554;6.736;2023-09-12T01:09:42;100812.00;;;20.00
37536;BMP180;23379;51.554;6.736;2023-09-12T01:12:08;100802.00;;;20.00
37536;BMP180;23379;51.554;6.736;2023-09-12T01:14:33;100797.00;;;19.90
37536;BMP180;23379;51.554;6.736;2023-09-12T01:16:59;100802.00;;;19.90
37536;BMP180;23379;51.554;6.736;2023-09-12T01:19:26;100795.00;;;19.90
37536;BMP180;23379;51.554;6.736;2023-09-12T01:22:16;100775.00;;;19.80
37536;BMP180;23379;51.554;6.736;2023-09-12T01:27:22;100782.00;;;20.10
37536;BMP180;23379;51.554;6.736;2023-09-12T01:29:51;100786.00;;;20.00
37536;BMP180;23379;51.554;6.736;2023-09-12T01:32:18;100796.00;;;20.00
37536;BMP180;23379;51.554;6.736;2023-09-12T01:34:44;100802.00;;;20.10
37536;BMP180;23379;51.554;6.736;2023-09-12T01:37:10;100789.00;;;20.00
37536;BMP180;23379;51.554;6.736;2023-09-12T01:39:35;100776.00;;;19.70
37536;BMP180;23379;51.554;6.736;2023-09-12T01:42:01;100802.00;;;20.00
37536;BMP180;23379;51.554;6.736;2023-09-12T01:44:30;100831.00;;;19.90
37536;BMP180;23379;51.554;6.736;2023-09-12T01:46:57;100794.00;;;19.80
37536;BMP180;23379;51.554;6.736;2023-09-12T01:49:24;100756.00;;;19.10
37536;BMP180;23379;51.554;6.736;2023-09-12T01:51:50;100776.00;;;19.30
37536;BMP180;23379;51.554;6.736;2023-09-12T01:54:16;100805.00;;;19.30
37536;BMP180;23379;51.554;6.736;2023-09-12T01:56:42;100735.00;;;18.80
37536;BMP180;23379;51.554;6.736;2023-09-12T01:59:07;100748.00;;;18.90
37536;BMP180;23379;51.554;6.736;2023-09-12T02:01:33;100780.00;;;19.20
37536;BMP180;23379;51.554;6.736;2023-09-12T02:03:58;100761.00;;;19.30
37536;BMP180;23379;51.554;6.736;2023-09-12T02:06:23;100744.00;;;19.30
37536;BMP180;23379;51.554;6.736;2023-09-12T02:08:49;100751.00;;;19.50
37536;BMP180;23379;51.554;6.736;2023-09-12T02:11:18;100800.00;;;19.50
37536;BMP180;23379;51.554;6.736;2023-09-12T02:13:44;100779.00;;;19.20
37536;BMP180;23379;51.554;6.736;2023-09-12T02:16:09;100728.00;;;18.50
37536;BMP180;23379;51.554;6.736;2023-09-12T02:18:34;100746.00;;;18.70
37536;BMP180;23379;51.554;6.736;2023-09-12T02:21:00;100750.00;;;18.70
37536;BMP180;23379;51.554;6.736;2023-09-12T02:23:25;100758.00;;;18.80
37536;BMP180;23379;51.554;6.736;2023-09-12T02:25:50;100760.00;;;18.80
37536;BMP180;23379;51.554;6.736;2023-09-12T02:28:15;100757.00;;;18.80
37536;BMP180;23379;51.554;6.736;2023-09-12T02:30:41;100764.00;;;18.90
37536;BMP180;23379;51.554;6.736;2023-09-12T02:33:06;100776.00;;;19.00
37536;BMP180;23379;51.554;6.736;2023-09-12T02:35:31;100794.00;;;19.20
37536;BMP180;23379;51.554;6.736;2023-09-12T02:37:57;100794.00;;;19.30
37536;BMP180;23379;51.554;6.736;2023-09-12T02:40:22;100778.00;;;19.20
37536;BMP180;23379;51.554;6.736;2023-09-12T02:42:48;100777.00;;;19.00
37536;BMP180;23379;51.554;6.736;2023-09-12T02:45:13;100803.00;;;19.10
37536;BMP180;23379;51.554;6.736;2023-09-12T02:47:38;100819.00;;;19.00
37536;BMP180;23379;51.554;6.736;2023-09-12T02:50:03;100831.00;;;18.90
37536;BMP180;23379;51.554;6.736;2023-09-12T02:52:29;100791.00;;;19.00
37536;BMP180;23379;51.554;6.736;2023-09-12T02:54:54;100759.00;;;18.90
37536;BMP180;23379;51.554;6.736;2023-09-12T02:57:19;100754.00;;;19.10
37536;BMP180;23379;51.554;6.736;2023-09-12T02:59:45;100763.00;;;19.20
37536;BMP180;23379;51.554;6.736;2023-09-12T03:02:10;100771.00;;;19.00
37536;BMP180;23379;51.554;6.736;2023-09-12T03:04:35;100765.00;;;19.00
37536;BMP180;23379;51.554;6.736;2023-09-12T03:07:01;100764.00;;;19.10
37536;BMP180;23379;51.554;6.736;2023-09-12T03:09:27;100754.00;;;19.20
37536;BMP180;23379;51.554;6.736;2023-09-12T03:11:52;100741.00;;;19.30
37536;BMP180;23379;51.554;6.736;2023-09-12T03:14:17;100730.00;;;19.30
37536;BMP180;23379;51.554;6.736;2023-09-12T03:16:43;100721.00;;;19.50
37536;BMP180;23379;51.554;6.736;2023-09-12T03:19:08;100714.00;;;19.70
37536;BMP180;23379;51.554;6.736;2023-09-12T03:21:33;100721.00;;;19.70
37536;BMP180;23379;51.554;6.736;2023-09-12T03:23:58;100721.00;;;19.70
37536;BMP180;23379;51.554;6.736;2023-09-12T03:26:24;100725.00;;;19.70
37536;BMP180;23379;51.554;6.736;2023-09-12T03:28:49;100711.00;;;19.80
37536;BMP180;23379;51.554;6.736;2023-09-12T03:31:16;100722.00;;;19.70
37536;BMP180;23379;51.554;6.736;2023-09-12T03:33:41;100731.00;;;19.80
37536;BMP180;23379;51.554;6.736;2023-09-12T03:36:07;100731.00;;;19.90
37536;BMP180;23379;51.554;6.736;2023-09-12T03:38:33;100720.00;;;20.00
37536;BMP180;23379;51.554;6.736;2023-09-12T03:40:59;100714.00;;;19.90
37536;BMP180;23379;51.554;6.736;2023-09-12T03:43:24;100711.00;;;19.80
37536;BMP180;23379;51.554;6.736;2023-09-12T03:45:50;100708.00;;;19.70
37536;BMP180;23379;51.554;6.736;2023-09-12T03:48:15;100707.00;;;19.70
37536;BMP180;23379;51.554;6.736;2023-09-12T03:50:40;100703.00;;;19.80
37536;BMP180;23379;51.554;6.736;2023-09-12T03:53:06;100696.00;;;19.50
37536;BMP180;23379;51.554;6.736;2023-09-12T03:55:31;100684.00;;;19.50
37536;BMP180;23379;51.554;6.736;2023-09-12T03:57:57;100679.00;;;19.50
37536;BMP180;23379;51.554;6.736;2023-09-12T04:00:22;100679.00;;;19.60
37536;BMP180;23379;51.554;6.736;2023-09-12T04:02:47;100675.00;;;19.70
37536;BMP180;23379;51.554;6.736;2023-09-12T04:05:13;100678.00;;;19.50
37536;BMP180;23379;51.554;6.736;2023-09-12T04:07:38;100673.00;;;19.60
37536;BMP180;23379;51.554;6.736;2023-09-12T04:10:04;100673.00;;;19.50
37536;BMP180;23379;51.554;6.736;2023-09-12T04:12:29;100685.00;;;19.60
37536;BMP180;23379;51.554;6.736;2023-09-12T04:14:54;100687.00;;;19.50
37536;BMP180;23379;51.554;6.736;2023-09-12T04:17:20;100686.00;;;19.60
37536;BMP180;23379;51.554;6.736;2023-09-12T04:19:45;100685.00;;;19.60
37536;BMP180;23379;51.554;6.736;2023-09-12T04:22:10;100689.00;;;19.60
37536;BMP180;23379;51.554;6.736;2023-09-12T04:24:36;100696.00;;;19.60
37536;BMP180;23379;51.554;6.736;2023-09-12T04:27:01;100690.00;;;19.50
37536;BMP180;23379;51.554;6.736;2023-09-12T04:29:26;100696.00;;;19.40
37536;BMP180;23379;51.554;6.736;2023-09-12T04:31:52;100695.00;;;19.30
37536;BMP180;23379;51.554;6.736;2023-09-12T04:34:24;100687.00;;;19.30
37536;BMP180;23379;51.554;6.736;2023-09-12T04:36:49;100695.00;;;19.60
37536;BMP180;23379;51.554;6.736;2023-09-12T04:39:14;100701.00;;;19.50
37536;BMP180;23379;51.554;6.736;2023-09-12T04:41:40;100695.00;;;19.50
37536;BMP180;23379;51.554;6.736;2023-09-12T04:44:05;100708.00;;;19.60
37536;BMP180;23379;51.554;6.736;2023-09-12T04:46:30;100720.00;;;19.30
37536;BMP180;23379;51.554;6.736;2023-09-12T04:48:55;100724.00;;;19.30
37536;BMP180;23379;51.554;6.736;2023-09-12T04:51:21;100732.00;;;19.50
37536;BMP180;23379;51.554;6.736;2023-09-12T04:53:46;100730.00;;;19.60
37536;BMP180;23379;51.554;6.736;2023-09-12T04:56:16;100736.00;;;19.40
37536;BMP180;23379;51.554;6.736;2023-09-12T04:58:41;100736.00;;;19.40
37536;BMP180;23379;51.554;6.736;2023-09-12T05:01:07;100734.00;;;19.60
37536;BMP180;23379;51.554;6.736;2023-09-12T05:03:32;100720.00;;;19.50
37536;BMP180;23379;51.554;6.736;2023-09-12T05:05:58;100723.00;;;19.60
37536;BMP180;23379;51.554;6.736;2023-09-12T05:08:24;100720.00;;;19.80
37536;BMP180;23379;51.554;6.736;2023-09-12T05:10:49;100717.00;;;20.00
37536;BMP180;23379;51.554;6.736;2023-09-12T05:13:15;100727.00;;;19.90
37536;BMP180;23379;51.554;6.736;2023-09-12T05:15:40;100750.00;;;20.00
37536;BMP180;23379;51.554;6.736;2023-09-12T05:18:06;100763.00;;;20.00
37536;BMP180;23379;51.554;6.736;2023-09-12T05:20:32;100741.00;;;20.00
37536;BMP180;23379;51.554;6.736;2023-09-12T05:22:57;100708.00;;;19.70
37536;BMP180;23379;51.554;6.736;2023-09-12T05:25:22;100701.00;;;19.70
37536;BMP180;23379;51.554;6.736;2023-09-12T05:27:48;100739.00;;;19.80
37536;BMP180;23379;51.554;6.736;2023-09-12T05:30:13;100751.00;;;20.00
37536;BMP180;23379;51.554;6.736;2023-09-12T05:32:38;100764.00;;;19.90
37536;BMP180;23379;51.554;6.736;2023-09-12T05:35:04;100779.00;;;20.00
37536;BMP180;23379;51.554;6.736;2023-09-12T05:37:29;100782.00;;;20.10
37536;BMP180;23379;51.554;6.736;2023-09-12T05:39:54;100788.00;;;20.10
37536;BMP180;23379;51.554;6.736;2023-09-12T05:42:19;100799.00;;;20.10
37536;BMP180;23379;51.554;6.736;2023-09-12T05:44:50;100804.00;;;20.10
37536;BMP180;23379;51.554;6.736;2023-09-12T05:47:18;100794.00;;;19.90
37536;BMP180;23379;51.554;6.736;2023-09-12T05:49:43;100765.00;;;19.70
37536;BMP180;23379;51.554;6.736;2023-09-12T05:52:09;100781.00;;;19.90
37536;BMP180;23379;51.554;6.736;2023-09-12T05:54:34;100798.00;;;20.00
37536;BMP180;23379;51.554;6.736;2023-09-12T05:56:59;100793.00;;;20.00
37536;BMP180;23379;51.554;6.736;2023-09-12T05:59:24;100776.00;;;19.90
37536;BMP180;23379;51.554;6.736;2023-09-12T06:01:50;100790.00;;;20.10
37536;BMP180;23379;51.554;6.736;2023-09-12T06:04:17;100807.00;;;20.20
37536;BMP180;23379;51.554;6.736;2023-09-12T06:06:42;100817.00;;;20.00
37536;BMP180;23379;51.554;6.736;2023-09-12T06:09:07;100811.00;;;20.10
37536;BMP180;23379;51.554;6.736;2023-09-12T06:11:33;100832.00;;;20.20
37536;BMP180;23379;51.554;6.736;2023-09-12T06:13:59;100872.00;;;20.10
37536;BMP180;23379;51.554;6.736;2023-09-12T06:16:24;100908.00;;;19.60
37536;BMP180;23379;51.554;6.736;2023-09-12T06:18:49;100929.00;;;19.40
37536;BMP180;23379;51.554;6.736;2023-09-12T06:21:15;100914.00;;;19.40
37536;BMP180;23379;51.554;6.736;2023-09-12T06:23:40;100905.00;;;19.10
37536;BMP180;23379;51.554;6.736;2023-09-12T06:26:05;100867.00;;;19.20
37536;BMP180;23379;51.554;6.736;2023-09-12T06:28:31;100857.00;;;19.30
37536;BMP180;23379;51.554;6.736;2023-09-12T06:30:57;100844.00;;;19.30
37536;BMP180;23379;51.554;6.736;2023-09-12T06:33:22;100834.00;;;19.40
37536;BMP180;23379;51.554;6.736;2023-09-12T06:35:51;100816.00;;;19.40
37536;BMP180;23379;51.554;6.736;2023-09-12T06:38:18;100791.00;;;19.40
37536;BMP180;23379;51.554;6.736;2023-09-12T06:40:43;100775.00;;;19.40
37536;BMP180;23379;51.554;6.736;2023-09-12T06:43:08;100769.00;;;19.60
37536;BMP180;23379;51.554;6.736;2023-09-12T06:45:34;100764.00;;;19.90
37536;BMP180;23379;51.554;6.736;2023-09-12T06:48:01;100750.00;;;19.70
37536;BMP180;23379;51.554;6.736;2023-09-12T06:50:27;100730.00;;;19.70
37536;BMP180;23379;51.554;6.736;2023-09-12T06:52:52;100725.00;;;19.70
37536;BMP180;23379;51.554;6.736;2023-09-12T06:55:17;100734.00;;;19.80
37536;BMP180;23379;51.554;6.736;2023-09-12T06:57:43;100756.00;;;19.90
37536;BMP180;23379;51.554;6.736;2023-09-12T07:00:08;100779.00;;;19.80
37536;BMP180;23379;51.554;6.736;2023-09-12T07:02:34;100794.00;;;19.60
37536;BMP180;23379;51.554;6.736;2023-09-12T07:04:59;100800.00;;;19.50
37536;BMP180;23379;51.554;6.736;2023-09-12T07:07:24;100810.00;;;19.50
37536;BMP180;23379;51.554;6.736;2023-09-12T07:09:50;100812.00;;;19.60
37536;BMP180;23379;51.554;6.736;2023-09-12T07:12:15;100811.00;;;19.80
37536;BMP180;23379;51.554;6.736;2023-09-12T07:14:40;100806.00;;;19.70
37536;BMP180;23379;51.554;6.736;2023-09-12T07:17:06;100797.00;;;19.90
37536;BMP180;23379;51.554;6.736;2023-09-12T07:19:31;100798.00;;;19.50
37536;BMP180;23379;51.554;6.736;2023-09-12T07:21:56;100789.00;;;19.40
37536;BMP180;23379;51.554;6.736;2023-09-12T07:24:24;100779.00;;;19.60
37536;BMP180;23379;51.554;6.736;2023-09-12T07:26:50;100764.00;;;19.50
37536;BMP180;23379;51.554;6.736;2023-09-12T07:29:15;100771.00;;;19.70
37536;BMP180;23379;51.554;6.736;2023-09-12T07:31:40;100761.00;;;19.70
37536;BMP180;23379;51.554;6.736;2023-09-12T07:34:05;100770.00;;;19.60
37536;BMP180;23379;51.554;6.736;2023-09-12T07:36:31;100765.00;;;19.70
37536;BMP180;23379;51.554;6.736;2023-09-12T07:38:56;100771.00;;;19.60
37536;BMP180;23379;51.554;6.736;2023-09-12T07:41:21;100761.00;;;19.70
37536;BMP180;23379;51.554;6.736;2023-09-12T07:43:46;100767.00;;;20.00
37536;BMP180;23379;51.554;6.736;2023-09-12T07:46:12;100778.00;;;20.20
37536;BMP180;23379;51.554;6.736;2023-09-12T07:48:37;100773.00;;;20.40
37536;BMP180;23379;51.554;6.736;2023-09-12T07:51:10;100790.00;;;20.60
37536;BMP180;23379;51.554;6.736;2023-09-12T07:53:36;100774.00;;;20.20
37536;BMP180;23379;51.554;6.736;2023-09-12T07:56:01;100760.00;;;20.10
37536;BMP180;23379;51.554;6.736;2023-09-12T07:58:26;100768.00;;;20.00
37536;BMP180;23379;51.554;6.736;2023-09-12T08:00:51;100774.00;;;20.00
37536;BMP180;23379;51.554;6.736;2023-09-12T08:03:17;100775.00;;;20.10
37536;BMP180;23379;51.554;6.736;2023-09-12T08:05:42;100781.00;;;20.30
37536;BMP180;23379;51.554;6.736;2023-09-12T08:08:08;100787.00;;;20.60
37536;BMP180;23379;51.554;6.736;2023-09-12T08:10:33;100794.00;;;20.40
37536;BMP180;23379;51.554;6.736;2023-09-12T08:12:58;100794.00;;;20.50
37536;BMP180;23379;51.554;6.736;2023-09-12T08:15:23;100794.00;;;20.50
37536;BMP180;23379;51.554;6.736;2023-09-12T08:17:49;100798.00;;;20.50
37536;BMP180;23379;51.554;6.736;2023-09-12T08:20:17;100789.00;;;20.50
37536;BMP180;23379;51.554;6.736;2023-09-12T08:22:42;100784.00;;;20.40
37536;BMP180;23379;51.554;6.736;2023-09-12T08:25:08;100778.00;;;20.50
37536;BMP180;23379;51.554;6.736;2023-09-12T08:27:35;100784.00;;;20.80
37536;BMP180;23379;51.554;6.736;2023-09-12T08:30:00;100786.00;;;21.00
37536;BMP180;23379;51.554;6.736;2023-09-12T08:32:25;100799.00;;;21.10
37536;BMP180;23379;51.554;6.736;2023-09-12T08:34:50;100799.00;;;21.10
37536;BMP180;23379;51.554;6.736;2023-09-12T08:37:16;100797.00;;;21.30
37536;BMP180;23379;51.554;6.736;2023-09-12T08:39:44;100803.00;;;21.50
37536;BMP180;23379;51.554;6.736;2023-09-12T08:42:13;100804.00;;;21.70
37536;BMP180;23379;51.554;6.736;2023-09-12T08:44:39;100813.00;;;21.50
37536;BMP180;23379;51.554;6.736;2023-09-12T08:47:05;100820.00;;;21.70
37536;BMP180;23379;51.554;6.736;2023-09-12T08:49:33;100833.00;;;22.30
37536;BMP180;23379;51.554;6.736;2023-09-12T09:07:33;100867.00;;;27.80
37536;BMP180;23379;51.554;6.736;2023-09-12T09:10:01;100867.00;;;28.10
37536;BMP180;23379;51.554;6.736;2023-09-12T09:12:27;100870.00;;;28.80
37536;BMP180;23379;51.554;6.736;2023-09-12T09:14:52;100866.00;;;29.20
37536;BMP180;23379;51.554;6.736;2023-09-12T09:17:18;100879.00;;;29.40
37536;BMP180;23379;51.554;6.736;2023-09-12T09:19:44;100878.00;;;29.20
37536;BMP180;23379;51.554;6.736;2023-09-12T09:22:10;100886.00;;;29.60
37536;BMP180;23379;51.554;6.736;2023-09-12T09:24:35;100878.00;;;29.70
37536;BMP180;23379;51.554;6.736;2023-09-12T09:27:00;100873.00;;;30.00
37536;BMP180;23379;51.554;6.736;2023-09-12T09:29:27;100862.00;;;30.20
37536;BMP180;23379;51.554;6.736;2023-09-12T09:31:57;100859.00;;;30.00
37536;BMP180;23379;51.554;6.736;2023-09-12T09:34:23;100862.00;;;30.80
37536;BMP180;23379;51.554;6.736;2023-09-12T09:36:50;100877.00;;;30.40
37536;BMP180;23379;51.554;6.736;2023-09-12T09:39:17;100889.00;;;31.90
37536;BMP180;23379;51.554;6.736;2023-09-12T09:41:42;100888.00;;;31.80
37536;BMP180;23379;51.554;6.736;2023-09-12T09:44:08;100880.00;;;30.70
37536;BMP180;23379;51.554;6.736;2023-09-12T09:46:34;100882.00;;;30.00
37536;BMP180;23379;51.554;6.736;2023-09-12T09:48:59;100886.00;;;30.10
37536;BMP180;23379;51.554;6.736;2023-09-12T09:51:25;100892.00;;;29.20
37536;BMP180;23379;51.554;6.736;2023-09-12T09:53:51;100890.00;;;29.00
37536;BMP180;23379;51.554;6.736;2023-09-12T09:56:17;100889.00;;;28.50
37536;BMP180;23379;51.554;6.736;2023-09-12T09:58:46;100884.00;;;28.20
37536;BMP180;23379;51.554;6.736;2023-09-12T10:01:12;100885.00;;;28.50
37536;BMP180;23379;51.554;6.736;2023-09-12T10:03:37;100883.00;;;29.90
37536;BMP180;23379;51.554;6.736;2023-09-12T10:06:03;100884.00;;;31.40
37536;BMP180;23379;51.554;6.736;2023-09-12T10:08:29;100880.00;;;32.50
37536;BMP180;23379;51.554;6.736;2023-09-12T10:10:56;100884.00;;;33.60
37536;BMP180;23379;51.554;6.736;2023-09-12T10:13:21;100881.00;;;33.60
37536;BMP180;23379;51.554;6.736;2023-09-12T10:15:51;100885.00;;;33.80
37536;BMP180;23379;51.554;6.736;2023-09-12T10:18:18;100878.00;;;33.80
37536;BMP180;23379;51.554;6.736;2023-09-12T10:20:58;100878.00;;;32.70
37536;BMP180;23379;51.554;6.736;2023-09-12T10:23:39;100878.00;;;31.50
37536;BMP180;23379;51.554;6.736;2023-09-12T10:26:09;100878.00;;;31.50
37536;BMP180;23379;51.554;6.736;2023-09-12T10:28:34;100877.00;;;31.60
37536;BMP180;23379;51.554;6.736;2023-09-12T10:31:00;100876.00;;;31.50
37536;BMP180;23379;51.554;6.736;2023-09-12T10:33:26;100875.00;;;32.60
37536;BMP180;23379;51.554;6.736;2023-09-12T10:35:56;100882.00;;;33.30
37536;BMP180;23379;51.554;6.736;2023-09-12T10:38:22;100878.00;;;33.60
37536;BMP180;23379;51.554;6.736;2023-09-12T10:40:48;100889.00;;;34.40
37536;BMP180;23379;51.554;6.736;2023-09-12T10:43:14;100889.00;;;35.10
37536;BMP180;23379;51.554;6.736;2023-09-12T10:45:40;100892.00;;;34.90
37536;BMP180;23379;51.554;6.736;2023-09-12T10:48:05;100891.00;;;34.20
37536;BMP180;23379;51.554;6.736;2023-09-12T10:50:31;100891.00;;;34.40
37536;BMP180;23379;51.554;6.736;2023-09-12T10:52:56;100890.00;;;34.10
37536;BMP180;23379;51.554;6.736;2023-09-12T10:55:32;100881.00;;;34.20
37536;BMP180;23379;51.554;6.736;2023-09-12T10:58:08;100875.00;;;35.20
37536;BMP180;23379;51.554;6.736;2023-09-12T11:00:33;100882.00;;;34.90
37536;BMP180;23379;51.554;6.736;2023-09-12T11:02:59;100883.00;;;35.20
37536;BMP180;23379;51.554;6.736;2023-09-12T11:07:58;100882.00;;;33.30
37536;BMP180;23379;51.554;6.736;2023-09-12T11:10:24;100869.00;;;32.80
37536;BMP180;23379;51.554;6.736;2023-09-12T11:12:54;100875.00;;;31.70
37536;BMP180;23379;51.554;6.736;2023-09-12T11:17:48;100871.00;;;30.90
37536;BMP180;23379;51.554;6.736;2023-09-12T11:20:14;100870.00;;;29.50
37536;BMP180;23379;51.554;6.736;2023-09-12T11:22:44;100868.00;;;29.20
37536;BMP180;23379;51.554;6.736;2023-09-12T11:25:19;100859.00;;;28.80
37536;BMP180;23379;51.554;6.736;2023-09-12T11:30:10;100852.00;;;29.50
37536;BMP180;23379;51.554;6.736;2023-09-12T11:32:36;100865.00;;;31.30
37536;BMP180;23379;51.554;6.736;2023-09-12T11:35:05;100862.00;;;31.20
37536;BMP180;23379;51.554;6.736;2023-09-12T11:37:31;100861.00;;;31.80
37536;BMP180;23379;51.554;6.736;2023-09-12T11:39:58;100859.00;;;32.90
37536;BMP180;23379;51.554;6.736;2023-09-12T11:42:23;100865.00;;;32.80
37536;BMP180;23379;51.554;6.736;2023-09-12T11:44:51;100854.00;;;32.40
37536;BMP180;23379;51.554;6.736;2023-09-12T11:47:16;100854.00;;;33.80
37536;BMP180;23379;51.554;6.736;2023-09-12T11:49:42;100861.00;;;33.80
37536;BMP180;23379;51.554;6.736;2023-09-12T11:52:08;100859.00;;;34.70
37536;BMP180;23379;51.554;6.736;2023-09-12T11:54:34;100864.00;;;35.00
37536;BMP180;23379;51.554;6.736;2023-09-12T11:56:59;100861.00;;;35.00
37536;BMP180;23379;51.554;6.736;2023-09-12T11:59:27;100861.00;;;34.50
37536;BMP180;23379;51.554;6.736;2023-09-12T12:01:53;100864.00;;;33.70
37536;BMP180;23379;51.554;6.736;2023-09-12T12:04:22;100866.00;;;33.40
37536;BMP180;23379;51.554;6.736;2023-09-12T12:06:49;100864.00;;;32.30
37536;BMP180;23379;51.554;6.736;2023-09-12T12:09:15;100862.00;;;33.20
37536;BMP180;23379;51.554;6.736;2023-09-12T12:11:43;100860.00;;;34.20
37536;BMP180;23379;51.554;6.736;2023-09-12T12:14:18;100857.00;;;33.40
37536;BMP180;23379;51.554;6.736;2023-09-12T12:16:46;100864.00;;;31.80
37536;BMP180;23379;51.554;6.736;2023-09-12T12:19:12;100863.00;;;31.60
37536;BMP180;23379;51.554;6.736;2023-09-12T12:21:39;100869.00;;;32.60
37536;BMP180;23379;51.554;6.736;2023-09-12T12:24:04;100873.00;;;33.00
37536;BMP180;23379;51.554;6.736;2023-09-12T12:26:30;100874.00;;;32.20
37536;BMP180;23379;51.554;6.736;2023-09-12T12:28:55;100863.00;;;31.40
37536;BMP180;23379;51.554;6.736;2023-09-12T12:31:21;100869.00;;;30.90
37536;BMP180;23379;51.554;6.736;2023-09-12T12:33:49;100868.00;;;30.20
37536;BMP180;23379;51.554;6.736;2023-09-12T12:36:15;100859.00;;;30.40
37536;BMP180;23379;51.554;6.736;2023-09-12T12:38:40;100863.00;;;31.70
37536;BMP180;23379;51.554;6.736;2023-09-12T12:41:08;100869.00;;;33.70
37536;BMP180;23379;51.554;6.736;2023-09-12T12:43:33;100860.00;;;35.10
37536;BMP180;23379;51.554;6.736;2023-09-12T12:45:59;100861.00;;;35.60
37536;BMP180;23379;51.554;6.736;2023-09-12T12:50:56;100847.00;;;36.40
37536;BMP180;23379;51.554;6.736;2023-09-12T12:53:40;100844.00;;;38.00
37536;BMP180;23379;51.554;6.736;2023-09-12T12:56:05;100839.00;;;37.40
37536;BMP180;23379;51.554;6.736;2023-09-12T12:58:31;100837.00;;;37.40
37536;BMP180;23379;51.554;6.736;2023-09-12T13:00:56;100839.00;;;37.40
37536;BMP180;23379;51.554;6.736;2023-09-12T13:03:21;100844.00;;;37.60
37536;BMP180;23379;51.554;6.736;2023-09-12T13:05:46;100845.00;;;37.20
37536;BMP180;23379;51.554;6.736;2023-09-12T13:08:12;100831.00;;;37.00
37536;BMP180;23379;51.554;6.736;2023-09-12T13:10:37;100824.00;;;37.00
37536;BMP180;23379;51.554;6.736;2023-09-12T13:13:02;100821.00;;;36.00
37536;BMP180;23379;51.554;6.736;2023-09-12T13:15:29;100813.00;;;36.20
37536;BMP180;23379;51.554;6.736;2023-09-12T13:17:54;100810.00;;;36.70
37536;BMP180;23379;51.554;6.736;2023-09-12T13:20:19;100815.00;;;36.00
37536;BMP180;23379;51.554;6.736;2023-09-12T13:22:45;100809.00;;;36.20
37536;BMP180;23379;51.554;6.736;2023-09-12T13:25:10;100805.00;;;35.50
37536;BMP180;23379;51.554;6.736;2023-09-12T13:27:35;100799.00;;;34.30
37536;BMP180;23379;51.554;6.736;2023-09-12T13:30:01;100805.00;;;35.80
37536;BMP180;23379;51.554;6.736;2023-09-12T13:32:26;100802.00;;;36.60
37536;BMP180;23379;51.554;6.736;2023-09-12T13:34:52;100798.00;;;36.20
37536;BMP180;23379;51.554;6.736;2023-09-12T13:37:17;100797.00;;;37.70
37536;BMP180;23379;51.554;6.736;2023-09-12T13:39:44;100786.00;;;36.10
37536;BMP180;23379;51.554;6.736;2023-09-12T13:42:13;100788.00;;;36.70
37536;BMP180;23379;51.554;6.736;2023-09-12T13:44:39;100790.00;;;38.50
37536;BMP180;23379;51.554;6.736;2023-09-12T13:47:04;100789.00;;;37.90
37536;BMP180;23379;51.554;6.736;2023-09-12T13:49:30;100792.00;;;37.50
37536;BMP180;23379;51.554;6.736;2023-09-12T13:51:55;100792.00;;;37.90
37536;BMP180;23379;51.554;6.736;2023-09-12T13:54:20;100797.00;;;37.10
37536;BMP180;23379;51.554;6.736;2023-09-12T13:56:46;100794.00;;;37.20
37536;BMP180;23379;51.554;6.736;2023-09-12T13:59:11;100786.00;;;36.90
37536;BMP180;23379;51.554;6.736;2023-09-12T14:01:37;100788.00;;;36.50
37536;BMP180;23379;51.554;6.736;2023-09-12T14:04:02;100796.00;;;37.00
37536;BMP180;23379;51.554;6.736;2023-09-12T14:06:28;100780.00;;;36.00
37536;BMP180;23379;51.554;6.736;2023-09-12T14:08:53;100793.00;;;35.70
37536;BMP180;23379;51.554;6.736;2023-09-12T14:11:18;100792.00;;;35.50
37536;BMP180;23379;51.554;6.736;2023-09-12T14:13:44;100788.00;;;35.10
37536;BMP180;23379;51.554;6.736;2023-09-12T14:16:09;100792.00;;;34.30
37536;BMP180;23379;51.554;6.736;2023-09-12T14:18:34;100796.00;;;35.80